sensor_id;sensor_type;location;lat;lon;timestamp;P1;durP1;ratioP1;P2;durP2;ratioP2
12348;SDS011;5974;42.710;27.258;2022-10-04T00:00:49;1.97;;;1.27;;
12348;SDS011;5974;42.710;27.258;2022-10-04T00:03:21;6.37;;;2.00;;
12348;SDS011;5974;42.710;27.258;2022-10-04T00:05:52;2.77;;;1.30;;
12348;SDS011;5974;42.710;27.258;2022-10-04T00:08:21;2.17;;;1.70;;
12348;SDS011;5974;42.710;27.258;2022-10-04T00:10:55;2.07;;;1.23;;
12348;SDS011;5974;42.710;27.258;2022-10-04T00:13:26;4.10;;;1.50;;
12348;SDS011;5974;42.710;27.258;2022-10-04T00:15:54;3.20;;;1.30;;
12348;SDS011;5974;42.710;27.258;2022-10-04T00:18:21;2.27;;;1.10;;
12348;SDS011;5974;42.710;27.258;2022-10-04T00:20:57;4.00;;;1.30;;
12348;SDS011;5974;42.710;27.258;2022-10-04T00:23:25;2.50;;;1.50;;
12348;SDS011;5974;42.710;27.258;2022-10-04T00:25:53;3.17;;;1.60;;
12348;SDS011;5974;42.710;27.258;2022-10-04T00:28:28;4.33;;;1.50;;
12348;SDS011;5974;42.710;27.258;2022-10-04T00:31:09;3.90;;;1.77;;
12348;SDS011;5974;42.710;27.258;2022-10-04T00:33:36;3.23;;;1.40;;
12348;SDS011;5974;42.710;27.258;2022-10-04T00:38:48;1.30;;;1.00;;
12348;SDS011;5974;42.710;27.258;2022-10-04T00:41:26;2.53;;;1.20;;
12348;SDS011;5974;42.710;27.258;2022-10-04T00:43:53;1.30;;;1.20;;
12348;SDS011;5974;42.710;27.258;2022-10-04T00:46:25;2.17;;;1.47;;
12348;SDS011;5974;42.710;27.258;2022-10-04T00:48:54;5.63;;;1.67;;
12348;SDS011;5974;42.710;27.258;2022-10-04T00:51:24;2.87;;;1.43;;
12348;SDS011;5974;42.710;27.258;2022-10-04T00:53:57;1.70;;;1.10;;
12348;SDS011;5974;42.710;27.258;2022-10-04T00:56:26;2.63;;;1.50;;
12348;SDS011;5974;42.710;27.258;2022-10-04T01:01:51;4.60;;;1.53;;
12348;SDS011;5974;42.710;27.258;2022-10-04T01:02:19;5.43;;;1.30;;
12348;SDS011;5974;42.710;27.258;2022-10-04T01:04:47;5.83;;;1.80;;
12348;SDS011;5974;42.710;27.258;2022-10-04T01:07:17;2.97;;;1.30;;
12348;SDS011;5974;42.710;27.258;2022-10-04T01:09:49;2.07;;;1.50;;
12348;SDS011;5974;42.710;27.258;2022-10-04T01:12:21;1.90;;;1.10;;
12348;SDS011;5974;42.710;27.258;2022-10-04T01:14:52;1.77;;;1.30;;
12348;SDS011;5974;42.710;27.258;2022-10-04T01:17:22;2.93;;;1.50;;
12348;SDS011;5974;42.710;27.258;2022-10-04T01:19:50;4.00;;;1.40;;
12348;SDS011;5974;42.710;27.258;2022-10-04T01:25:03;2.80;;;1.40;;
12348;SDS011;5974;42.710;27.258;2022-10-04T01:27:30;1.57;;;1.10;;
12348;SDS011;5974;42.710;27.258;2022-10-04T01:29:57;3.37;;;1.57;;
12348;SDS011;5974;42.710;27.258;2022-10-04T01:32:24;2.60;;;1.30;;
12348;SDS011;5974;42.710;27.258;2022-10-04T01:34:51;3.57;;;1.20;;
12348;SDS011;5974;42.710;27.258;2022-10-04T01:37:18;3.50;;;1.30;;
12348;SDS011;5974;42.710;27.258;2022-10-04T01:39:44;1.53;;;1.20;;
12348;SDS011;5974;42.710;27.258;2022-10-04T01:42:14;4.43;;;1.30;;
12348;SDS011;5974;42.710;27.258;2022-10-04T01:44:44;1.80;;;1.30;;
12348;SDS011;5974;42.710;27.258;2022-10-04T01:47:12;1.33;;;1.10;;
12348;SDS011;5974;42.710;27.258;2022-10-04T01:49:40;3.33;;;1.30;;
12348;SDS011;5974;42.710;27.258;2022-10-04T01:52:09;2.50;;;1.53;;
12348;SDS011;5974;42.710;27.258;2022-10-04T01:54:40;3.33;;;1.80;;
12348;SDS011;5974;42.710;27.258;2022-10-04T01:57:10;4.80;;;1.37;;
12348;SDS011;5974;42.710;27.258;2022-10-04T01:59:40;1.63;;;1.30;;
12348;SDS011;5974;42.710;27.258;2022-10-04T02:02:14;3.20;;;1.30;;
12348;SDS011;5974;42.710;27.258;2022-10-04T02:04:42;1.53;;;1.40;;
12348;SDS011;5974;42.710;27.258;2022-10-04T02:07:12;2.57;;;1.30;;
12348;SDS011;5974;42.710;27.258;2022-10-04T02:09:41;3.03;;;1.33;;
12348;SDS011;5974;42.710;27.258;2022-10-04T02:12:23;2.70;;;1.40;;
12348;SDS011;5974;42.710;27.258;2022-10-04T02:14:52;2.73;;;1.10;;
12348;SDS011;5974;42.710;27.258;2022-10-04T02:17:20;2.07;;;1.30;;
12348;SDS011;5974;42.710;27.258;2022-10-04T02:19:47;1.43;;;1.23;;
12348;SDS011;5974;42.710;27.258;2022-10-04T02:22:14;1.43;;;1.10;;
12348;SDS011;5974;42.710;27.258;2022-10-04T02:24:42;3.80;;;1.30;;
12348;SDS011;5974;42.710;27.258;2022-10-04T02:27:10;2.80;;;1.50;;
12348;SDS011;5974;42.710;27.258;2022-10-04T02:29:38;4.57;;;1.53;;
12348;SDS011;5974;42.710;27.258;2022-10-04T02:32:05;5.03;;;1.60;;
12348;SDS011;5974;42.710;27.258;2022-10-04T02:34:49;2.93;;;1.43;;
12348;SDS011;5974;42.710;27.258;2022-10-04T02:37:16;1.83;;;1.57;;
12348;SDS011;5974;42.710;27.258;2022-10-04T02:39:44;3.13;;;1.53;;
12348;SDS011;5974;42.710;27.258;2022-10-04T02:42:13;5.40;;;1.93;;
12348;SDS011;5974;42.710;27.258;2022-10-04T02:44:43;3.73;;;1.50;;
12348;SDS011;5974;42.710;27.258;2022-10-04T02:47:12;4.37;;;1.50;;
12348;SDS011;5974;42.710;27.258;2022-10-04T02:49:40;5.33;;;1.60;;
12348;SDS011;5974;42.710;27.258;2022-10-04T02:52:11;3.27;;;1.60;;
12348;SDS011;5974;42.710;27.258;2022-10-04T02:54:41;3.10;;;1.70;;
12348;SDS011;5974;42.710;27.258;2022-10-04T02:57:12;5.37;;;1.60;;
12348;SDS011;5974;42.710;27.258;2022-10-04T02:59:40;4.63;;;1.50;;
12348;SDS011;5974;42.710;27.258;2022-10-04T03:02:19;2.03;;;1.50;;
12348;SDS011;5974;42.710;27.258;2022-10-04T03:04:46;1.53;;;1.40;;
12348;SDS011;5974;42.710;27.258;2022-10-04T03:07:14;2.90;;;1.73;;
12348;SDS011;5974;42.710;27.258;2022-10-04T03:09:41;2.20;;;1.70;;
12348;SDS011;5974;42.710;27.258;2022-10-04T03:12:08;4.43;;;1.50;;
12348;SDS011;5974;42.710;27.258;2022-10-04T03:14:36;4.23;;;2.57;;
12348;SDS011;5974;42.710;27.258;2022-10-04T03:17:04;3.17;;;1.60;;
12348;SDS011;5974;42.710;27.258;2022-10-04T03:19:32;4.43;;;1.60;;
12348;SDS011;5974;42.710;27.258;2022-10-04T03:22:00;4.13;;;1.70;;
12348;SDS011;5974;42.710;27.258;2022-10-04T03:24:28;3.73;;;1.93;;
12348;SDS011;5974;42.710;27.258;2022-10-04T03:26:58;2.90;;;1.80;;
12348;SDS011;5974;42.710;27.258;2022-10-04T03:29:26;2.73;;;1.60;;
12348;SDS011;5974;42.710;27.258;2022-10-04T03:31:54;4.33;;;2.17;;
12348;SDS011;5974;42.710;27.258;2022-10-04T03:34:22;5.07;;;1.93;;
12348;SDS011;5974;42.710;27.258;2022-10-04T03:36:51;3.53;;;1.70;;
12348;SDS011;5974;42.710;27.258;2022-10-04T03:39:23;2.00;;;1.70;;
12348;SDS011;5974;42.710;27.258;2022-10-04T03:41:52;3.73;;;1.73;;
12348;SDS011;5974;42.710;27.258;2022-10-04T03:44:18;2.70;;;1.67;;
12348;SDS011;5974;42.710;27.258;2022-10-04T03:46:46;3.47;;;1.80;;
12348;SDS011;5974;42.710;27.258;2022-10-04T03:49:14;2.00;;;1.80;;
12348;SDS011;5974;42.710;27.258;2022-10-04T03:51:43;2.27;;;1.80;;
12348;SDS011;5974;42.710;27.258;2022-10-04T03:54:12;4.27;;;2.27;;
12348;SDS011;5974;42.710;27.258;2022-10-04T03:56:42;3.23;;;1.60;;
12348;SDS011;5974;42.710;27.258;2022-10-04T03:59:09;1.57;;;1.47;;
12348;SDS011;5974;42.710;27.258;2022-10-04T04:01:39;1.93;;;1.60;;
12348;SDS011;5974;42.710;27.258;2022-10-04T04:04:11;3.67;;;2.03;;
12348;SDS011;5974;42.710;27.258;2022-10-04T04:06:42;2.80;;;1.67;;
12348;SDS011;5974;42.710;27.258;2022-10-04T04:09:17;3.63;;;1.90;;
12348;SDS011;5974;42.710;27.258;2022-10-04T04:11:45;7.07;;;2.07;;
12348;SDS011;5974;42.710;27.258;2022-10-04T04:14:15;1.60;;;1.47;;
12348;SDS011;5974;42.710;27.258;2022-10-04T04:16:45;1.77;;;1.60;;
12348;SDS011;5974;42.710;27.258;2022-10-04T04:19:12;5.20;;;1.97;;
12348;SDS011;5974;42.710;27.258;2022-10-04T04:21:40;2.60;;;1.60;;
12348;SDS011;5974;42.710;27.258;2022-10-04T04:24:11;2.90;;;1.97;;
12348;SDS011;5974;42.710;27.258;2022-10-04T04:26:42;3.40;;;1.77;;
12348;SDS011;5974;42.710;27.258;2022-10-04T04:29:11;3.47;;;1.70;;
12348;SDS011;5974;42.710;27.258;2022-10-04T04:31:41;4.23;;;1.97;;
12348;SDS011;5974;42.710;27.258;2022-10-04T04:34:15;2.53;;;1.80;;
12348;SDS011;5974;42.710;27.258;2022-10-04T04:36:45;1.87;;;1.57;;
12348;SDS011;5974;42.710;27.258;2022-10-04T04:39:15;4.40;;;2.00;;
12348;SDS011;5974;42.710;27.258;2022-10-04T04:42:04;3.03;;;1.73;;
12348;SDS011;5974;42.710;27.258;2022-10-04T04:44:32;2.50;;;1.70;;
12348;SDS011;5974;42.710;27.258;2022-10-04T04:46:59;2.27;;;1.70;;
12348;SDS011;5974;42.710;27.258;2022-10-04T04:49:26;2.53;;;1.73;;
12348;SDS011;5974;42.710;27.258;2022-10-04T04:51:55;4.27;;;2.00;;
12348;SDS011;5974;42.710;27.258;2022-10-04T04:54:22;5.60;;;2.00;;
12348;SDS011;5974;42.710;27.258;2022-10-04T04:56:50;3.37;;;2.00;;
12348;SDS011;5974;42.710;27.258;2022-10-04T04:59:19;4.10;;;2.00;;
12348;SDS011;5974;42.710;27.258;2022-10-04T05:01:47;6.17;;;1.77;;
12348;SDS011;5974;42.710;27.258;2022-10-04T05:04:15;8.77;;;1.67;;
12348;SDS011;5974;42.710;27.258;2022-10-04T05:06:43;2.97;;;1.47;;
12348;SDS011;5974;42.710;27.258;2022-10-04T05:09:19;3.87;;;2.00;;
12348;SDS011;5974;42.710;27.258;2022-10-04T05:11:47;4.37;;;3.13;;
12348;SDS011;5974;42.710;27.258;2022-10-04T05:14:15;8.47;;;3.63;;
12348;SDS011;5974;42.710;27.258;2022-10-04T05:16:45;8.23;;;4.70;;
12348;SDS011;5974;42.710;27.258;2022-10-04T05:19:14;3.47;;;2.40;;
12348;SDS011;5974;42.710;27.258;2022-10-04T05:21:42;5.97;;;2.37;;
12348;SDS011;5974;42.710;27.258;2022-10-04T05:24:10;9.03;;;3.63;;
12348;SDS011;5974;42.710;27.258;2022-10-04T05:26:38;6.20;;;3.43;;
12348;SDS011;5974;42.710;27.258;2022-10-04T05:29:07;6.43;;;2.60;;
12348;SDS011;5974;42.710;27.258;2022-10-04T05:31:38;2.80;;;1.20;;
12348;SDS011;5974;42.710;27.258;2022-10-04T05:34:16;2.03;;;1.50;;
12348;SDS011;5974;42.710;27.258;2022-10-04T05:36:46;1.97;;;1.47;;
12348;SDS011;5974;42.710;27.258;2022-10-04T05:39:18;2.27;;;1.30;;
12348;SDS011;5974;42.710;27.258;2022-10-04T05:41:48;3.73;;;1.40;;
12348;SDS011;5974;42.710;27.258;2022-10-04T05:44:25;3.33;;;2.50;;
12348;SDS011;5974;42.710;27.258;2022-10-04T05:46:52;2.30;;;2.10;;
12348;SDS011;5974;42.710;27.258;2022-10-04T05:49:21;3.37;;;1.80;;
12348;SDS011;5974;42.710;27.258;2022-10-04T05:51:49;3.33;;;2.10;;
12348;SDS011;5974;42.710;27.258;2022-10-04T05:54:18;2.73;;;1.40;;
12348;SDS011;5974;42.710;27.258;2022-10-04T05:59:41;3.50;;;1.70;;
12348;SDS011;5974;42.710;27.258;2022-10-04T06:02:14;3.50;;;1.30;;
12348;SDS011;5974;42.710;27.258;2022-10-04T06:04:53;1.90;;;1.30;;
12348;SDS011;5974;42.710;27.258;2022-10-04T06:07:22;1.73;;;1.20;;
12348;SDS011;5974;42.710;27.258;2022-10-04T06:09:55;2.33;;;1.20;;
12348;SDS011;5974;42.710;27.258;2022-10-04T06:12:25;1.63;;;1.27;;
12348;SDS011;5974;42.710;27.258;2022-10-04T06:15:00;1.57;;;1.20;;
12348;SDS011;5974;42.710;27.258;2022-10-04T06:17:36;2.77;;;1.20;;
12348;SDS011;5974;42.710;27.258;2022-10-04T06:20:10;1.77;;;1.37;;
12348;SDS011;5974;42.710;27.258;2022-10-04T06:22:43;1.77;;;1.20;;
12348;SDS011;5974;42.710;27.258;2022-10-04T06:25:12;3.33;;;1.27;;
12348;SDS011;5974;42.710;27.258;2022-10-04T06:27:39;1.30;;;1.20;;
12348;SDS011;5974;42.710;27.258;2022-10-04T06:30:11;1.73;;;0.90;;
12348;SDS011;5974;42.710;27.258;2022-10-04T06:38:30;9.47;;;2.63;;
12348;SDS011;5974;42.710;27.258;2022-10-04T06:41:03;81.43;;;10.70;;
12348;SDS011;5974;42.710;27.258;2022-10-04T06:43:40;1.17;;;1.10;;
12348;SDS011;5974;42.710;27.258;2022-10-04T06:46:10;1.17;;;1.00;;
12348;SDS011;5974;42.710;27.258;2022-10-04T06:48:52;2.53;;;1.07;;
12348;SDS011;5974;42.710;27.258;2022-10-04T06:51:24;2.83;;;1.50;;
12348;SDS011;5974;42.710;27.258;2022-10-04T06:53:58;2.73;;;1.30;;
12348;SDS011;5974;42.710;27.258;2022-10-04T06:59:24;1.93;;;1.13;;
12348;SDS011;5974;42.710;27.258;2022-10-04T07:01:57;1.83;;;1.13;;
12348;SDS011;5974;42.710;27.258;2022-10-04T07:04:28;1.43;;;1.20;;
12348;SDS011;5974;42.710;27.258;2022-10-04T07:07:14;3.00;;;1.00;;
12348;SDS011;5974;42.710;27.258;2022-10-04T07:10:02;1.17;;;1.07;;
12348;SDS011;5974;42.710;27.258;2022-10-04T07:12:30;2.83;;;1.13;;
12348;SDS011;5974;42.710;27.258;2022-10-04T07:14:59;2.67;;;1.40;;
12348;SDS011;5974;42.710;27.258;2022-10-04T07:17:28;0.90;;;0.90;;
12348;SDS011;5974;42.710;27.258;2022-10-04T07:19:55;1.77;;;0.90;;
12348;SDS011;5974;42.710;27.258;2022-10-04T07:22:25;2.73;;;1.20;;
12348;SDS011;5974;42.710;27.258;2022-10-04T07:24:56;1.77;;;1.10;;
12348;SDS011;5974;42.710;27.258;2022-10-04T07:27:28;1.93;;;1.37;;
12348;SDS011;5974;42.710;27.258;2022-10-04T07:29:57;3.17;;;1.10;;
12348;SDS011;5974;42.710;27.258;2022-10-04T07:32:24;1.17;;;1.07;;
12348;SDS011;5974;42.710;27.258;2022-10-04T07:34:53;1.67;;;1.17;;
12348;SDS011;5974;42.710;27.258;2022-10-04T07:37:22;1.17;;;0.90;;
12348;SDS011;5974;42.710;27.258;2022-10-04T07:39:53;1.63;;;0.93;;
12348;SDS011;5974;42.710;27.258;2022-10-04T07:42:24;1.67;;;1.23;;
12348;SDS011;5974;42.710;27.258;2022-10-04T07:45:01;1.17;;;1.00;;
12348;SDS011;5974;42.710;27.258;2022-10-04T07:47:28;0.87;;;0.87;;
12348;SDS011;5974;42.710;27.258;2022-10-04T07:49:56;1.80;;;0.77;;
12348;SDS011;5974;42.710;27.258;2022-10-04T07:52:26;3.63;;;1.67;;
12348;SDS011;5974;42.710;27.258;2022-10-04T07:54:58;2.10;;;1.00;;
12348;SDS011;5974;42.710;27.258;2022-10-04T07:57:28;0.90;;;0.90;;
12348;SDS011;5974;42.710;27.258;2022-10-04T07:59:58;0.97;;;0.90;;
12348;SDS011;5974;42.710;27.258;2022-10-04T08:02:33;0.80;;;0.80;;
12348;SDS011;5974;42.710;27.258;2022-10-04T08:05:06;2.57;;;1.10;;
12348;SDS011;5974;42.710;27.258;2022-10-04T08:07:40;1.10;;;1.00;;
12348;SDS011;5974;42.710;27.258;2022-10-04T08:10:12;1.50;;;0.83;;
12348;SDS011;5974;42.710;27.258;2022-10-04T08:12:45;1.10;;;0.90;;
12348;SDS011;5974;42.710;27.258;2022-10-04T08:15:30;3.40;;;0.70;;
12348;SDS011;5974;42.710;27.258;2022-10-04T08:18:02;1.97;;;1.00;;
12348;SDS011;5974;42.710;27.258;2022-10-04T08:20:34;0.80;;;0.80;;
12348;SDS011;5974;42.710;27.258;2022-10-04T08:25:48;0.87;;;0.87;;
12348;SDS011;5974;42.710;27.258;2022-10-04T08:28:19;1.63;;;0.80;;
12348;SDS011;5974;42.710;27.258;2022-10-04T08:31:11;3.17;;;0.80;;
12348;SDS011;5974;42.710;27.258;2022-10-04T08:33:58;0.90;;;0.90;;
12348;SDS011;5974;42.710;27.258;2022-10-04T08:36:31;1.33;;;0.80;;
12348;SDS011;5974;42.710;27.258;2022-10-04T08:39:03;0.80;;;0.80;;
12348;SDS011;5974;42.710;27.258;2022-10-04T08:41:44;1.20;;;1.10;;
12348;SDS011;5974;42.710;27.258;2022-10-04T08:44:34;3.00;;;1.37;;
12348;SDS011;5974;42.710;27.258;2022-10-04T08:52:51;1.70;;;1.00;;
12348;SDS011;5974;42.710;27.258;2022-10-04T08:58:14;1.10;;;1.00;;
12348;SDS011;5974;42.710;27.258;2022-10-04T09:00:57;6.43;;;1.00;;
12348;SDS011;5974;42.710;27.258;2022-10-04T09:06:12;0.73;;;0.73;;
12348;SDS011;5974;42.710;27.258;2022-10-04T09:11:33;3.17;;;1.00;;
12348;SDS011;5974;42.710;27.258;2022-10-04T09:14:26;1.27;;;0.97;;
12348;SDS011;5974;42.710;27.258;2022-10-04T09:16:56;1.17;;;1.00;;
12348;SDS011;5974;42.710;27.258;2022-10-04T09:19:28;0.80;;;0.80;;
12348;SDS011;5974;42.710;27.258;2022-10-04T09:22:15;1.83;;;1.00;;
12348;SDS011;5974;42.710;27.258;2022-10-04T09:24:57;1.53;;;1.10;;
12348;SDS011;5974;42.710;27.258;2022-10-04T09:27:36;5.73;;;1.03;;
12348;SDS011;5974;42.710;27.258;2022-10-04T09:30:13;1.40;;;1.20;;
12348;SDS011;5974;42.710;27.258;2022-10-04T09:32:44;1.40;;;1.10;;
12348;SDS011;5974;42.710;27.258;2022-10-04T09:38:07;0.80;;;0.80;;
12348;SDS011;5974;42.710;27.258;2022-10-04T09:40:47;0.93;;;0.87;;
12348;SDS011;5974;42.710;27.258;2022-10-04T09:43:25;1.10;;;1.00;;
12348;SDS011;5974;42.710;27.258;2022-10-04T09:45:57;0.90;;;0.90;;
12348;SDS011;5974;42.710;27.258;2022-10-04T09:48:28;8.37;;;1.53;;
12348;SDS011;5974;42.710;27.258;2022-10-04T09:51:04;4.47;;;1.30;;
12348;SDS011;5974;42.710;27.258;2022-10-04T09:53:40;1.83;;;0.90;;
12348;SDS011;5974;42.710;27.258;2022-10-04T09:59:04;1.67;;;0.90;;
12348;SDS011;5974;42.710;27.258;2022-10-04T10:01:37;1.57;;;0.93;;
12348;SDS011;5974;42.710;27.258;2022-10-04T10:04:20;1.47;;;0.90;;
12348;SDS011;5974;42.710;27.258;2022-10-04T10:07:03;1.57;;;1.20;;
12348;SDS011;5974;42.710;27.258;2022-10-04T10:09:36;1.03;;;0.90;;
12348;SDS011;5974;42.710;27.258;2022-10-04T10:15:27;1.67;;;0.90;;
12348;SDS011;5974;42.710;27.258;2022-10-04T10:17:57;1.17;;;1.03;;
12348;SDS011;5974;42.710;27.258;2022-10-04T10:20:43;1.13;;;0.80;;
12348;SDS011;5974;42.710;27.258;2022-10-04T10:23:17;1.40;;;1.03;;
12348;SDS011;5974;42.710;27.258;2022-10-04T10:25:51;1.30;;;1.00;;
12348;SDS011;5974;42.710;27.258;2022-10-04T10:28:29;3.33;;;1.40;;
12348;SDS011;5974;42.710;27.258;2022-10-04T10:31:16;1.90;;;1.10;;
12348;SDS011;5974;42.710;27.258;2022-10-04T10:34:01;1.10;;;1.00;;
12348;SDS011;5974;42.710;27.258;2022-10-04T10:36:38;2.30;;;1.20;;
12348;SDS011;5974;42.710;27.258;2022-10-04T10:41:55;1.40;;;1.00;;
12348;SDS011;5974;42.710;27.258;2022-10-04T10:44:32;1.20;;;0.80;;
12348;SDS011;5974;42.710;27.258;2022-10-04T10:47:10;1.37;;;1.13;;
12348;SDS011;5974;42.710;27.258;2022-10-04T10:49:45;2.10;;;1.00;;
12348;SDS011;5974;42.710;27.258;2022-10-04T10:55:15;3.40;;;1.10;;
12348;SDS011;5974;42.710;27.258;2022-10-04T11:00:34;1.10;;;1.00;;
12348;SDS011;5974;42.710;27.258;2022-10-04T11:03:18;2.73;;;1.10;;
12348;SDS011;5974;42.710;27.258;2022-10-04T11:14:29;1.50;;;1.10;;
12348;SDS011;5974;42.710;27.258;2022-10-04T11:17:08;2.73;;;1.10;;
12348;SDS011;5974;42.710;27.258;2022-10-04T11:22:50;0.97;;;0.90;;
12348;SDS011;5974;42.710;27.258;2022-10-04T11:25:21;1.03;;;0.80;;
12348;SDS011;5974;42.710;27.258;2022-10-04T11:27:52;1.23;;;1.10;;
12348;SDS011;5974;42.710;27.258;2022-10-04T11:30:28;0.90;;;0.90;;
12348;SDS011;5974;42.710;27.258;2022-10-04T11:35:49;1.80;;;0.90;;
12348;SDS011;5974;42.710;27.258;2022-10-04T11:38:31;2.63;;;0.90;;
12348;SDS011;5974;42.710;27.258;2022-10-04T11:41:03;1.70;;;1.20;;
12348;SDS011;5974;42.710;27.258;2022-10-04T11:46:21;2.03;;;1.20;;
12348;SDS011;5974;42.710;27.258;2022-10-04T11:48:55;0.80;;;0.80;;
12348;SDS011;5974;42.710;27.258;2022-10-04T11:57:25;3.00;;;1.00;;
12348;SDS011;5974;42.710;27.258;2022-10-04T11:59:58;3.57;;;1.20;;
12348;SDS011;5974;42.710;27.258;2022-10-04T12:02:31;1.37;;;0.90;;
12348;SDS011;5974;42.710;27.258;2022-10-04T12:05:13;4.00;;;1.10;;
12348;SDS011;5974;42.710;27.258;2022-10-04T12:07:47;1.47;;;0.87;;
12348;SDS011;5974;42.710;27.258;2022-10-04T12:10:20;0.90;;;0.87;;
12348;SDS011;5974;42.710;27.258;2022-10-04T12:13:08;1.40;;;0.90;;
12348;SDS011;5974;42.710;27.258;2022-10-04T12:18:40;1.70;;;0.90;;
12348;SDS011;5974;42.710;27.258;2022-10-04T12:21:14;0.73;;;0.70;;
12348;SDS011;5974;42.710;27.258;2022-10-04T12:32:05;2.27;;;1.00;;
12348;SDS011;5974;42.710;27.258;2022-10-04T12:34:33;2.20;;;0.80;;
12348;SDS011;5974;42.710;27.258;2022-10-04T12:37:08;1.27;;;0.80;;
12348;SDS011;5974;42.710;27.258;2022-10-04T12:42:26;3.47;;;0.60;;
12348;SDS011;5974;42.710;27.258;2022-10-04T12:45:15;1.13;;;0.80;;
12348;SDS011;5974;42.710;27.258;2022-10-04T12:48:04;1.53;;;0.80;;
12348;SDS011;5974;42.710;27.258;2022-10-04T12:50:39;0.90;;;0.70;;
12348;SDS011;5974;42.710;27.258;2022-10-04T12:53:11;1.50;;;0.80;;
12348;SDS011;5974;42.710;27.258;2022-10-04T12:55:46;1.37;;;0.87;;
12348;SDS011;5974;42.710;27.258;2022-10-04T12:58:18;1.47;;;0.80;;
12348;SDS011;5974;42.710;27.258;2022-10-04T13:00:47;0.73;;;0.73;;
12348;SDS011;5974;42.710;27.258;2022-10-04T13:03:24;1.40;;;0.60;;
12348;SDS011;5974;42.710;27.258;2022-10-04T13:05:57;0.70;;;0.70;;
12348;SDS011;5974;42.710;27.258;2022-10-04T13:08:30;0.60;;;0.60;;
12348;SDS011;5974;42.710;27.258;2022-10-04T13:11:05;0.60;;;0.60;;
12348;SDS011;5974;42.710;27.258;2022-10-04T13:13:46;0.70;;;0.70;;
12348;SDS011;5974;42.710;27.258;2022-10-04T13:16:18;1.17;;;0.50;;
12348;SDS011;5974;42.710;27.258;2022-10-04T13:18:52;1.10;;;0.70;;
12348;SDS011;5974;42.710;27.258;2022-10-04T13:24:29;2.07;;;0.60;;
12348;SDS011;5974;42.710;27.258;2022-10-04T13:27:19;0.70;;;0.70;;
12348;SDS011;5974;42.710;27.258;2022-10-04T13:29:48;1.33;;;0.70;;
12348;SDS011;5974;42.710;27.258;2022-10-04T13:32:18;0.67;;;0.67;;
12348;SDS011;5974;42.710;27.258;2022-10-04T13:34:48;0.80;;;0.80;;
12348;SDS011;5974;42.710;27.258;2022-10-04T13:37:23;0.50;;;0.50;;
12348;SDS011;5974;42.710;27.258;2022-10-04T13:42:47;2.50;;;2.13;;
12348;SDS011;5974;42.710;27.258;2022-10-04T13:45:22;1.27;;;0.70;;
12348;SDS011;5974;42.710;27.258;2022-10-04T13:47:55;0.60;;;0.60;;
12348;SDS011;5974;42.710;27.258;2022-10-04T13:50:29;1.17;;;0.77;;
12348;SDS011;5974;42.710;27.258;2022-10-04T13:53:01;2.53;;;0.60;;
12348;SDS011;5974;42.710;27.258;2022-10-04T13:55:51;1.90;;;0.70;;
12348;SDS011;5974;42.710;27.258;2022-10-04T13:58:40;0.67;;;0.67;;
12348;SDS011;5974;42.710;27.258;2022-10-04T14:01:20;0.83;;;0.70;;
12348;SDS011;5974;42.710;27.258;2022-10-04T14:03:54;2.53;;;0.77;;
12348;SDS011;5974;42.710;27.258;2022-10-04T14:09:20;3.60;;;0.80;;
12348;SDS011;5974;42.710;27.258;2022-10-04T14:17:45;0.80;;;0.57;;
12348;SDS011;5974;42.710;27.258;2022-10-04T14:20:31;0.70;;;0.70;;
12348;SDS011;5974;42.710;27.258;2022-10-04T14:23:19;4.93;;;1.30;;
12348;SDS011;5974;42.710;27.258;2022-10-04T14:26:06;1.00;;;1.00;;
12348;SDS011;5974;42.710;27.258;2022-10-04T14:31:30;1.07;;;1.00;;
12348;SDS011;5974;42.710;27.258;2022-10-04T14:34:08;1.73;;;0.90;;
12348;SDS011;5974;42.710;27.258;2022-10-04T14:36:47;2.67;;;0.70;;
12348;SDS011;5974;42.710;27.258;2022-10-04T14:39:26;1.70;;;1.00;;
12348;SDS011;5974;42.710;27.258;2022-10-04T14:42:05;2.53;;;0.90;;
12348;SDS011;5974;42.710;27.258;2022-10-04T14:44:49;0.87;;;0.87;;
12348;SDS011;5974;42.710;27.258;2022-10-04T14:47:33;1.50;;;0.80;;
12348;SDS011;5974;42.710;27.258;2022-10-04T14:50:07;2.27;;;1.40;;
12348;SDS011;5974;42.710;27.258;2022-10-04T14:52:45;5.83;;;2.57;;
12348;SDS011;5974;42.710;27.258;2022-10-04T14:55:27;1.27;;;1.17;;
12348;SDS011;5974;42.710;27.258;2022-10-04T14:58:00;1.10;;;1.00;;
12348;SDS011;5974;42.710;27.258;2022-10-04T15:00:32;2.57;;;0.97;;
12348;SDS011;5974;42.710;27.258;2022-10-04T15:03:14;3.57;;;1.03;;
12348;SDS011;5974;42.710;27.258;2022-10-04T15:08:30;2.27;;;0.90;;
12348;SDS011;5974;42.710;27.258;2022-10-04T15:11:04;1.80;;;1.00;;
12348;SDS011;5974;42.710;27.258;2022-10-04T15:13:34;2.90;;;1.10;;
12348;SDS011;5974;42.710;27.258;2022-10-04T15:16:05;1.03;;;1.03;;
12348;SDS011;5974;42.710;27.258;2022-10-04T15:18:36;1.23;;;0.83;;
12348;SDS011;5974;42.710;27.258;2022-10-04T15:21:08;3.00;;;0.80;;
12348;SDS011;5974;42.710;27.258;2022-10-04T15:23:38;2.13;;;1.93;;
12348;SDS011;5974;42.710;27.258;2022-10-04T15:26:10;5.23;;;3.10;;
12348;SDS011;5974;42.710;27.258;2022-10-04T15:28:59;5.10;;;2.37;;
12348;SDS011;5974;42.710;27.258;2022-10-04T15:31:29;6.53;;;4.70;;
12348;SDS011;5974;42.710;27.258;2022-10-04T15:34:01;2.93;;;2.03;;
12348;SDS011;5974;42.710;27.258;2022-10-04T15:36:38;3.13;;;2.37;;
12348;SDS011;5974;42.710;27.258;2022-10-04T15:39:07;3.80;;;2.30;;
12348;SDS011;5974;42.710;27.258;2022-10-04T15:41:49;5.00;;;4.00;;
12348;SDS011;5974;42.710;27.258;2022-10-04T15:44:28;7.40;;;3.40;;
12348;SDS011;5974;42.710;27.258;2022-10-04T15:46:55;5.23;;;3.17;;
12348;SDS011;5974;42.710;27.258;2022-10-04T15:49:43;3.30;;;2.40;;
12348;SDS011;5974;42.710;27.258;2022-10-04T15:52:15;5.80;;;2.33;;
12348;SDS011;5974;42.710;27.258;2022-10-04T15:57:55;3.33;;;1.60;;
12348;SDS011;5974;42.710;27.258;2022-10-04T16:00:34;9.07;;;5.33;;
12348;SDS011;5974;42.710;27.258;2022-10-04T16:03:05;12.47;;;7.50;;
12348;SDS011;5974;42.710;27.258;2022-10-04T16:05:39;63.20;;;43.73;;
12348;SDS011;5974;42.710;27.258;2022-10-04T16:08:20;100.33;;;59.70;;
12348;SDS011;5974;42.710;27.258;2022-10-04T16:10:54;114.57;;;68.40;;
12348;SDS011;5974;42.710;27.258;2022-10-04T16:16:23;230.93;;;134.47;;
12348;SDS011;5974;42.710;27.258;2022-10-04T16:18:55;30.43;;;17.90;;
12348;SDS011;5974;42.710;27.258;2022-10-04T16:21:29;10.30;;;5.93;;
12348;SDS011;5974;42.710;27.258;2022-10-04T16:29:27;234.90;;;84.40;;
12348;SDS011;5974;42.710;27.258;2022-10-04T16:31:57;241.17;;;92.93;;
12348;SDS011;5974;42.710;27.258;2022-10-04T16:34:35;405.80;;;192.77;;
12348;SDS011;5974;42.710;27.258;2022-10-04T16:37:11;227.70;;;111.00;;
12348;SDS011;5974;42.710;27.258;2022-10-04T16:39:39;120.73;;;55.17;;
12348;SDS011;5974;42.710;27.258;2022-10-04T16:48:01;185.90;;;93.63;;
12348;SDS011;5974;42.710;27.258;2022-10-04T16:53:22;14.07;;;6.10;;
12348;SDS011;5974;42.710;27.258;2022-10-04T16:55:51;6.67;;;3.57;;
12348;SDS011;5974;42.710;27.258;2022-10-04T17:01:32;12.73;;;7.83;;
12348;SDS011;5974;42.710;27.258;2022-10-04T17:04:08;60.93;;;38.40;;
12348;SDS011;5974;42.710;27.258;2022-10-04T17:06:42;58.73;;;37.83;;
12348;SDS011;5974;42.710;27.258;2022-10-04T17:09:16;103.20;;;61.77;;
12348;SDS011;5974;42.710;27.258;2022-10-04T17:11:44;88.30;;;55.27;;
12348;SDS011;5974;42.710;27.258;2022-10-04T17:16:57;78.53;;;45.50;;
12348;SDS011;5974;42.710;27.258;2022-10-04T17:19:29;36.83;;;24.03;;
12348;SDS011;5974;42.710;27.258;2022-10-04T17:22:02;74.00;;;42.43;;
12348;SDS011;5974;42.710;27.258;2022-10-04T17:24:38;16.60;;;10.13;;
12348;SDS011;5974;42.710;27.258;2022-10-04T17:27:17;50.33;;;31.00;;
12348;SDS011;5974;42.710;27.258;2022-10-04T17:29:53;25.03;;;14.33;;
12348;SDS011;5974;42.710;27.258;2022-10-04T17:32:24;51.03;;;28.63;;
12348;SDS011;5974;42.710;27.258;2022-10-04T17:34:58;94.77;;;51.93;;